Time;durP1;ratioP1;P1;durP2;ratioP2;P2;SDS_P1;SDS_P2;PMS_P1;PMS_P2;Temp;Humidity;BMP_temperature;BMP_pressure;BME280_temperature;BME280_humidity;BME280_pressure;Samples;Min_cycle;Max_cycle;Signal;HPM_P1;HPM_P2
2022/09/25 00:02:15;;;;;;;7.22;2.47;;;12.40;99.90;;;;;;5036410;28;20052;-55
2022/09/25 00:04:41;;;;;;;8.13;2.38;;;12.40;99.90;;;;;;5035374;28;20053;-58
2022/09/25 00:07:08;;;;;;;7.43;2.13;;;12.40;99.90;;;;;;5035957;28;20041;-57
2022/09/25 00:09:35;;;;;;;6.72;2.58;;;12.40;99.90;;;;;;5035868;28;20037;-55
2022/09/25 00:12:01;;;;;;;8.82;2.20;;;12.40;99.90;;;;;;5035741;28;20124;-56
2022/09/25 00:14:28;;;;;;;9.43;2.20;;;12.40;99.90;;;;;;5039297;28;20173;-54
2022/09/25 00:16:55;;;;;;;9.75;2.13;;;12.30;99.90;;;;;;5051379;28;20532;-53
2022/09/25 00:22:07;;;;;;;8.38;2.20;;;12.30;99.90;;;;;;5036571;28;20126;-56
2022/09/25 00:24:34;;;;;;;8.95;2.20;;;12.30;99.90;;;;;;5035808;28;20045;-57
2022/09/25 00:27:00;;;;;;;7.05;1.95;;;12.20;99.90;;;;;;5038529;28;20116;-56
2022/09/25 00:29:27;;;;;;;8.55;2.60;;;12.30;99.90;;;;;;5047723;28;20030;-58
2022/09/25 00:31:54;;;;;;;6.97;2.35;;;12.20;99.90;;;;;;5033682;28;20449;-59
2022/09/25 00:34:20;;;;;;;7.47;2.13;;;12.20;99.90;;;;;;5038555;28;20068;-57
2022/09/25 00:36:47;;;;;;;8.57;2.35;;;12.20;99.90;;;;;;5054681;28;20047;-54
2022/09/25 00:39:14;;;;;;;7.70;1.88;;;12.20;99.90;;;;;;5054950;28;20124;-55
2022/09/25 00:41:40;;;;;;;8.77;2.03;;;12.20;99.90;;;;;;5043596;28;20488;-57
2022/09/25 00:44:07;;;;;;;12.75;2.22;;;12.20;99.90;;;;;;5024768;28;20088;-57
2022/09/25 00:46:34;;;;;;;6.93;1.92;;;12.20;99.90;;;;;;5036964;28;20036;-54
2022/09/25 00:49:01;;;;;;;9.68;2.53;;;12.10;99.90;;;;;;5031925;28;20116;-59
2022/09/25 00:51:28;;;;;;;12.38;2.75;;;12.20;99.90;;;;;;5022876;28;20061;-59
2022/09/25 00:53:56;;;;;;;7.00;2.50;;;12.10;99.90;;;;;;5032586;28;20068;-58
2022/09/25 00:56:23;;;;;;;8.30;2.30;;;12.10;99.90;;;;;;5034190;28;20068;-57
2022/09/25 00:58:49;;;;;;;10.38;2.65;;;12.10;99.90;;;;;;5044848;28;20454;-57
2022/09/25 01:01:16;;;;;;;11.98;2.45;;;12.00;99.90;;;;;;5049289;28;20051;-58
2022/09/25 01:03:45;;;;;;;11.20;2.80;;;12.00;99.90;;;;;;5052266;28;20048;-58
2022/09/25 01:06:12;;;;;;;12.75;2.50;;;12.00;99.90;;;;;;5054499;28;20111;-56
2022/09/25 01:08:38;;;;;;;8.52;2.05;;;12.00;99.90;;;;;;5054072;28;20395;-56
2022/09/25 01:11:05;;;;;;;10.52;2.22;;;11.90;99.90;;;;;;5054148;28;20391;-56
2022/09/25 01:13:32;;;;;;;7.13;1.90;;;11.90;99.90;;;;;;5042600;28;20041;-59
2022/09/25 01:15:58;;;;;;;8.43;1.88;;;11.90;99.90;;;;;;5032670;28;20096;-60
2022/09/25 01:18:25;;;;;;;8.80;2.17;;;11.90;99.90;;;;;;5035125;28;20261;-58
2022/09/25 01:20:52;;;;;;;8.15;2.33;;;11.90;99.90;;;;;;5034868;28;20381;-54
2022/09/25 01:23:18;;;;;;;7.80;1.98;;;11.80;99.90;;;;;;5034199;28;20128;-58
2022/09/25 01:25:45;;;;;;;7.93;1.75;;;11.80;99.90;;;;;;5044197;28;20476;-56
2022/09/25 01:28:12;;;;;;;13.70;2.20;;;11.80;99.90;;;;;;5049714;28;20050;-58
2022/09/25 01:30:38;;;;;;;7.88;1.80;;;11.80;99.90;;;;;;5036288;28;20049;-59
2022/09/25 01:33:06;;;;;;;12.00;2.20;;;11.80;99.90;;;;;;5033944;28;20129;-59
2022/09/25 01:35:33;;;;;;;6.65;1.70;;;11.80;99.90;;;;;;5041385;28;20041;-59
2022/09/25 01:38:00;;;;;;;9.20;1.95;;;11.70;99.90;;;;;;5036198;28;20060;-59
2022/09/25 01:40:27;;;;;;;6.30;1.60;;;11.70;99.90;;;;;;5052176;28;20076;-59
2022/09/25 01:42:53;;;;;;;7.53;1.58;;;11.70;99.90;;;;;;5030662;28;20160;-59
2022/09/25 01:45:20;;;;;;;10.55;1.77;;;11.70;99.90;;;;;;5034424;28;20099;-54
2022/09/25 01:47:47;;;;;;;7.72;1.58;;;11.70;99.90;;;;;;5034618;28;20401;-54
2022/09/25 01:50:14;;;;;;;10.20;1.90;;;11.70;99.90;;;;;;5035293;28;20048;-57
2022/09/25 01:52:41;;;;;;;10.52;2.05;;;11.70;99.90;;;;;;5053411;28;20033;-56
2022/09/25 01:55:07;;;;;;;10.38;1.58;;;11.70;99.90;;;;;;5053385;28;20471;-56
2022/09/25 01:57:34;;;;;;;9.38;1.67;;;11.60;99.90;;;;;;5053248;28;20136;-58
2022/09/25 02:00:01;;;;;;;6.53;1.50;;;11.70;99.90;;;;;;5053472;28;20037;-60
2022/09/25 02:02:37;;;;;;;10.18;1.40;;;11.70;99.90;;;;;;5046612;28;20527;-58
2022/09/25 02:05:03;;;;;;;8.43;1.80;;;11.70;99.90;;;;;;5043271;28;20057;-59
2022/09/25 02:07:30;;;;;;;8.15;2.08;;;11.70;99.90;;;;;;5053085;28;20044;-59
2022/09/25 02:09:57;;;;;;;12.13;1.98;;;11.80;99.90;;;;;;5048577;28;20045;-58
2022/09/25 02:12:24;;;;;;;9.77;2.35;;;11.80;99.90;;;;;;5049375;28;20099;-60
2022/09/25 02:14:50;;;;;;;6.72;1.30;;;11.80;99.90;;;;;;5052991;28;20091;-59
2022/09/25 02:20:30;;;;;;;11.82;2.35;;;11.80;99.90;;;;;;5052826;28;20045;-57
2022/09/25 02:23:12;;;;;;;9.95;1.80;;;11.70;99.90;;;;;;5061100;28;20099;-55
2022/09/25 02:25:38;;;;;;;9.73;2.15;;;11.60;99.90;;;;;;5050696;28;20123;-59
2022/09/25 02:28:05;;;;;;;10.18;2.65;;;11.60;99.90;;;;;;5037585;28;20072;-54
2022/09/25 02:30:32;;;;;;;8.18;2.20;;;11.50;99.90;;;;;;5032417;28;20041;-57
2022/09/25 02:32:58;;;;;;;9.02;1.70;;;11.50;99.90;;;;;;5036566;28;20043;-56
2022/09/25 02:35:25;;;;;;;9.20;2.30;;;11.40;99.90;;;;;;5051744;28;20072;-55
2022/09/25 02:37:52;;;;;;;11.07;2.30;;;11.40;99.90;;;;;;5036338;28;20124;-53
2022/09/25 02:40:19;;;;;;;8.63;1.98;;;11.40;99.90;;;;;;5032656;28;20073;-58
2022/09/25 02:42:47;;;;;;;7.72;1.95;;;11.30;99.90;;;;;;5044979;28;20135;-58
2022/09/25 02:45:13;;;;;;;10.65;2.00;;;11.30;99.90;;;;;;5051329;28;20095;-60
2022/09/25 02:47:40;;;;;;;12.57;2.25;;;11.30;99.90;;;;;;5052536;28;20415;-55
2022/09/25 02:50:07;;;;;;;8.38;2.22;;;11.20;99.90;;;;;;5052631;28;20041;-57
2022/09/25 02:52:33;;;;;;;11.00;2.15;;;11.30;99.90;;;;;;5052691;28;20064;-59
2022/09/25 02:55:00;;;;;;;8.65;2.42;;;11.30;99.90;;;;;;5044650;28;20037;-58
2022/09/25 02:57:27;;;;;;;12.57;2.22;;;11.30;99.90;;;;;;5038864;28;20095;-58
2022/09/25 02:59:53;;;;;;;7.97;2.38;;;11.30;99.90;;;;;;5033375;28;20045;-57
2022/09/25 03:02:20;;;;;;;7.68;1.98;;;11.20;99.90;;;;;;5032177;28;20048;-58
2022/09/25 03:04:47;;;;;;;11.57;3.30;;;11.10;99.90;;;;;;5033219;28;20053;-59
2022/09/25 03:07:14;;;;;;;12.75;2.63;;;11.10;99.90;;;;;;5032466;28;20167;-59
2022/09/25 03:09:40;;;;;;;6.40;1.80;;;11.00;99.90;;;;;;5032710;28;20128;-60
2022/09/25 03:12:07;;;;;;;13.35;2.72;;;11.00;99.90;;;;;;5047404;28;20041;-56
2022/09/25 03:14:34;;;;;;;12.48;3.20;;;11.00;99.90;;;;;;5052474;28;20037;-60
2022/09/25 03:17:02;;;;;;;11.75;2.45;;;11.00;99.90;;;;;;5041849;28;20068;-58
2022/09/25 03:19:29;;;;;;;7.32;2.70;;;10.90;99.90;;;;;;5033487;28;20045;-57
2022/09/25 03:21:55;;;;;;;8.30;2.30;;;10.90;99.90;;;;;;5033161;28;20104;-60
2022/09/25 03:24:22;;;;;;;9.90;2.60;;;10.90;99.90;;;;;;5033210;28;20136;-56
2022/09/25 03:26:49;;;;;;;6.28;2.10;;;10.90;99.90;;;;;;5032061;28;20534;-57
2022/09/25 03:29:16;;;;;;;8.20;2.00;;;10.80;99.90;;;;;;5031678;28;20076;-60
2022/09/25 03:31:44;;;;;;;6.82;2.35;;;10.80;99.90;;;;;;5031535;28;20049;-56
2022/09/25 03:34:11;;;;;;;12.43;2.80;;;10.70;99.90;;;;;;5032483;28;20037;-57
2022/09/25 03:36:38;;;;;;;10.50;3.08;;;10.70;99.90;;;;;;5033084;28;20033;-59
2022/09/25 03:39:05;;;;;;;8.20;2.53;;;10.70;99.90;;;;;;5033203;28;20041;-59
2022/09/25 03:41:32;;;;;;;6.07;2.67;;;10.60;99.90;;;;;;5031698;28;20053;-58
2022/09/25 03:43:59;;;;;;;10.90;3.10;;;10.50;99.90;;;;;;5050799;28;20139;-59
2022/09/25 03:46:26;;;;;;;9.73;2.45;;;10.50;99.90;;;;;;5054313;28;20056;-57
2022/09/25 03:48:53;;;;;;;8.77;2.70;;;10.50;99.90;;;;;;5048013;28;20038;-56
2022/09/25 03:51:20;;;;;;;10.30;2.55;;;10.50;99.90;;;;;;5055714;28;20041;-58
2022/09/25 03:53:46;;;;;;;8.80;2.40;;;10.40;99.90;;;;;;5055635;28;20227;-56
2022/09/25 03:56:13;;;;;;;9.68;2.78;;;10.40;99.90;;;;;;5050317;28;20055;-58
2022/09/25 03:58:40;;;;;;;9.68;2.30;;;10.40;99.90;;;;;;5055647;28;20499;-59
2022/09/25 04:01:06;;;;;;;10.70;2.72;;;10.40;99.90;;;;;;5039775;28;20056;-58
2022/09/25 04:03:33;;;;;;;8.05;2.53;;;10.30;99.90;;;;;;5038527;28;20041;-57
2022/09/25 04:06:01;;;;;;;11.57;2.72;;;10.30;99.90;;;;;;5036167;28;20136;-58
2022/09/25 04:08:27;;;;;;;9.45;2.50;;;10.30;99.90;;;;;;5035380;28;20116;-60
2022/09/25 04:11:00;;;;;;;11.40;2.85;;;10.20;99.90;;;;;;5036104;28;20448;-55
2022/09/25 04:13:28;;;;;;;7.57;2.55;;;10.20;99.90;;;;;;5033866;28;20033;-53
2022/09/25 04:15:55;;;;;;;8.38;2.40;;;10.20;99.90;;;;;;5036091;28;20057;-54
2022/09/25 04:18:22;;;;;;;9.35;2.53;;;10.20;99.90;;;;;;5035022;28;20045;-57
2022/09/25 04:20:49;;;;;;;8.82;2.40;;;10.20;99.90;;;;;;5034344;28;20461;-58
2022/09/25 04:23:15;;;;;;;10.15;2.85;;;10.10;99.90;;;;;;5055263;28;20077;-58
2022/09/25 04:25:44;;;;;;;7.72;2.47;;;10.10;99.90;;;;;;5054982;28;20488;-58
2022/09/25 04:28:11;;;;;;;10.95;2.33;;;10.10;99.90;;;;;;5036299;28;20049;-56
2022/09/25 04:30:38;;;;;;;14.23;2.70;;;10.10;99.90;;;;;;5033923;28;20065;-56
2022/09/25 04:35:50;;;;;;;8.93;2.05;;;10.00;99.90;;;;;;5030810;28;20049;-57
2022/09/25 04:38:16;;;;;;;5.82;2.40;;;10.00;99.90;;;;;;5035626;28;20571;-59
2022/09/25 04:40:44;;;;;;;9.05;2.63;;;10.00;99.90;;;;;;5033666;28;20045;-59
2022/09/25 04:43:11;;;;;;;10.60;3.72;;;10.00;99.90;;;;;;5035490;28;20484;-59
2022/09/25 04:45:38;;;;;;;12.70;3.10;;;10.00;99.90;;;;;;5034997;28;20033;-57
2022/09/25 04:48:05;;;;;;;9.40;2.33;;;10.00;99.90;;;;;;5035464;28;20072;-56
2022/09/25 04:50:31;;;;;;;8.57;2.63;;;10.00;99.90;;;;;;5054648;28;20456;-59
2022/09/25 04:53:01;;;;;;;9.50;2.20;;;9.90;99.90;;;;;;5044149;28;20468;-56
2022/09/25 04:55:27;;;;;;;6.97;2.20;;;9.90;99.90;;;;;;5034601;28;20045;-58
2022/09/25 04:57:54;;;;;;;7.80;2.75;;;9.90;99.90;;;;;;5044110;28;20033;-60
2022/09/25 05:00:25;;;;;;;7.68;2.22;;;9.80;99.90;;;;;;5031925;28;20037;-55
2022/09/25 05:02:52;;;;;;;10.18;2.67;;;9.90;99.90;;;;;;5034324;28;20103;-58
2022/09/25 05:05:19;;;;;;;10.43;2.50;;;9.80;99.90;;;;;;5032522;28;20393;-58
2022/09/25 05:07:45;;;;;;;9.82;2.20;;;9.90;99.90;;;;;;5034452;28;20037;-54
2022/09/25 05:10:13;;;;;;;7.43;2.50;;;9.80;99.90;;;;;;5035067;28;20048;-58
2022/09/25 05:12:40;;;;;;;9.40;2.10;;;9.90;99.90;;;;;;5032869;28;20088;-59
2022/09/25 05:15:06;;;;;;;9.00;2.30;;;9.80;99.90;;;;;;5032738;28;20136;-59
2022/09/25 05:17:33;;;;;;;9.48;3.05;;;9.80;99.90;;;;;;5035148;28;20038;-57
2022/09/25 05:20:00;;;;;;;7.15;2.47;;;9.80;99.90;;;;;;5035013;28;20045;-59
2022/09/25 05:22:26;;;;;;;10.88;2.50;;;9.80;99.90;;;;;;5034524;28;20050;-57
2022/09/25 05:24:53;;;;;;;9.40;2.40;;;9.80;99.90;;;;;;5054120;28;20574;-63
2022/09/25 05:27:24;;;;;;;9.63;2.10;;;9.80;99.90;;;;;;5046426;28;20096;-58
2022/09/25 05:29:51;;;;;;;9.50;2.50;;;9.90;99.90;;;;;;5051086;28;20422;-56
2022/09/25 05:32:18;;;;;;;10.85;2.17;;;9.80;99.90;;;;;;5031184;28;20072;-57
2022/09/25 05:34:44;;;;;;;11.52;2.60;;;9.80;99.90;;;;;;5032553;28;20037;-56
2022/09/25 05:37:11;;;;;;;8.98;2.80;;;9.80;99.90;;;;;;5040231;28;20115;-58
2022/09/25 05:39:38;;;;;;;9.68;2.83;;;9.80;99.90;;;;;;5038069;28;20076;-57
2022/09/25 05:42:05;;;;;;;11.40;2.63;;;9.70;99.90;;;;;;5031721;28;20049;-59
2022/09/25 05:44:31;;;;;;;13.85;2.85;;;9.70;99.90;;;;;;5034200;28;20056;-58
2022/09/25 05:46:58;;;;;;;10.70;2.45;;;9.70;99.90;;;;;;5046137;28;20492;-57
2022/09/25 05:49:25;;;;;;;11.00;2.60;;;9.70;99.90;;;;;;5053273;28;20137;-58
2022/09/25 05:51:51;;;;;;;13.20;3.20;;;9.70;99.90;;;;;;5053516;28;20064;-55
2022/09/25 05:54:18;;;;;;;6.70;2.30;;;9.60;99.90;;;;;;5049911;28;20037;-58
2022/09/25 05:56:45;;;;;;;8.57;2.97;;;9.70;99.90;;;;;;5034421;28;20041;-56
2022/09/25 05:59:12;;;;;;;7.20;2.45;;;9.70;99.90;;;;;;5032104;28;20033;-59
2022/09/25 06:01:40;;;;;;;9.63;2.70;;;9.70;99.90;;;;;;5033828;28;20069;-58
2022/09/25 06:04:07;;;;;;;9.13;2.60;;;9.70;99.90;;;;;;5033833;28;20489;-57
2022/09/25 06:06:33;;;;;;;5.63;2.10;;;9.70;99.90;;;;;;5034186;28;20453;-58
2022/09/25 06:09:00;;;;;;;6.50;2.25;;;9.80;99.90;;;;;;5044187;28;20136;-58
2022/09/25 06:11:28;;;;;;;7.30;2.38;;;9.80;99.90;;;;;;5040548;28;20065;-57
2022/09/25 06:13:56;;;;;;;9.55;2.80;;;9.80;99.90;;;;;;5033886;28;20108;-57
2022/09/25 06:16:23;;;;;;;7.38;2.47;;;9.80;99.90;;;;;;5038370;28;20033;-55
2022/09/25 06:18:51;;;;;;;12.20;2.42;;;9.80;99.90;;;;;;5033936;28;20430;-58
2022/09/25 06:21:18;;;;;;;9.05;2.58;;;9.90;99.90;;;;;;5034157;28;20096;-58
2022/09/25 06:23:45;;;;;;;10.52;2.40;;;9.90;99.90;;;;;;5032791;28;20045;-57
2022/09/25 06:26:13;;;;;;;8.63;2.95;;;9.90;99.90;;;;;;5042551;28;20037;-57
2022/09/25 06:28:39;;;;;;;8.35;2.78;;;9.90;99.90;;;;;;5033122;28;20069;-56
2022/09/25 06:31:06;;;;;;;7.75;2.90;;;9.90;99.90;;;;;;5032411;28;20037;-57
2022/09/25 06:33:33;;;;;;;8.95;2.75;;;9.90;99.90;;;;;;5036952;28;20044;-58
2022/09/25 06:35:59;;;;;;;7.72;2.88;;;9.90;99.90;;;;;;5031985;28;20041;-57
2022/09/25 06:38:26;;;;;;;10.20;2.78;;;9.90;99.90;;;;;;5032811;28;20033;-54
2022/09/25 06:40:53;;;;;;;7.43;2.83;;;9.90;99.90;;;;;;5033728;28;20076;-57
2022/09/25 06:43:25;;;;;;;6.95;2.63;;;9.90;99.90;;;;;;5033570;28;20045;-59
2022/09/25 06:45:52;;;;;;;10.73;3.17;;;9.90;99.90;;;;;;5032356;28;20049;-58
2022/09/25 06:48:20;;;;;;;11.18;2.90;;;9.90;99.90;;;;;;5034014;28;20037;-57
2022/09/25 06:50:47;;;;;;;12.10;3.65;;;10.00;99.90;;;;;;5032594;28;20045;-56
2022/09/25 06:53:14;;;;;;;9.23;3.13;;;10.00;99.90;;;;;;5041248;28;20121;-60
2022/09/25 06:55:40;;;;;;;8.23;3.17;;;10.00;99.90;;;;;;5030310;28;20048;-59
2022/09/25 06:58:07;;;;;;;11.73;3.78;;;10.10;99.90;;;;;;5029628;28;20140;-57
2022/09/25 07:00:34;;;;;;;7.55;2.75;;;10.10;99.90;;;;;;5032399;28;20045;-56
2022/09/25 07:05:47;;;;;;;9.70;2.90;;;10.10;99.90;;;;;;5036477;28;20057;-58
2022/09/25 07:08:14;;;;;;;9.02;2.72;;;10.20;99.90;;;;;;5039830;28;20060;-59
2022/09/25 07:10:43;;;;;;;11.85;2.72;;;10.20;99.90;;;;;;5033111;28;20528;-60
2022/09/25 07:13:11;;;;;;;9.57;3.42;;;10.20;99.90;;;;;;5035484;28;20091;-57
2022/09/25 07:15:38;;;;;;;8.40;2.63;;;10.30;99.90;;;;;;5042565;28;20053;-58
2022/09/25 07:18:05;;;;;;;5.90;2.30;;;10.30;99.90;;;;;;5042484;28;20033;-58
2022/09/25 07:20:31;;;;;;;12.30;2.70;;;10.40;99.90;;;;;;5037257;28;20037;-57
2022/09/25 07:23:02;;;;;;;8.80;2.50;;;10.40;99.90;;;;;;5034267;28;20049;-56
2022/09/25 07:25:30;;;;;;;8.50;3.03;;;10.40;99.90;;;;;;5040149;28;20041;-55
2022/09/25 07:27:57;;;;;;;9.27;2.42;;;10.50;99.90;;;;;;5034815;28;20452;-56
2022/09/25 07:30:24;;;;;;;7.10;2.50;;;10.50;99.90;;;;;;5039862;28;20041;-57
2022/09/25 07:32:51;;;;;;;8.35;2.75;;;10.50;99.90;;;;;;5036930;28;20532;-58
2022/09/25 07:35:26;;;;;;;6.22;2.40;;;10.60;99.90;;;;;;5035993;28;20034;-58
2022/09/25 07:37:52;;;;;;;8.43;2.40;;;10.60;99.90;;;;;;5034460;28;20132;-57
2022/09/25 07:40:19;;;;;;;13.77;2.58;;;10.70;99.90;;;;;;5034480;28;20116;-60
2022/09/25 07:42:46;;;;;;;6.03;2.50;;;10.70;99.90;;;;;;5033937;28;20049;-58
2022/09/25 07:45:13;;;;;;;12.52;2.88;;;10.70;99.90;;;;;;5035654;28;20072;-59
2022/09/25 07:47:39;;;;;;;9.43;2.45;;;10.80;99.90;;;;;;5047878;28;20215;-58
2022/09/25 07:50:06;;;;;;;9.60;2.78;;;10.80;99.90;;;;;;5038408;28;20121;-55
2022/09/25 07:52:38;;;;;;;10.73;2.40;;;10.90;99.90;;;;;;5032328;28;20032;-59
2022/09/25 07:55:06;;;;;;;13.13;2.90;;;10.90;99.90;;;;;;5034262;28;20038;-56
2022/09/25 07:57:33;;;;;;;7.22;2.10;;;11.00;99.90;;;;;;5055115;28;20124;-59
2022/09/25 07:59:59;;;;;;;9.07;2.25;;;11.00;99.90;;;;;;5039790;28;20175;-55
2022/09/25 08:02:26;;;;;;;10.32;2.30;;;11.10;99.90;;;;;;5036399;28;20041;-57
2022/09/25 08:04:53;;;;;;;10.50;2.13;;;11.10;99.90;;;;;;5032536;28;20115;-55
2022/09/25 08:07:20;;;;;;;11.63;2.33;;;11.20;99.90;;;;;;5036367;28;20457;-57
2022/09/25 08:09:46;;;;;;;6.15;1.75;;;11.20;99.90;;;;;;5035084;28;20124;-56
2022/09/25 08:12:13;;;;;;;7.90;1.67;;;11.20;99.90;;;;;;5034465;28;20112;-55
2022/09/25 08:14:40;;;;;;;12.52;2.22;;;11.30;99.90;;;;;;5017415;28;20083;-53
2022/09/25 08:17:07;;;;;;;10.35;2.55;;;11.30;99.90;;;;;;5036052;28;20414;-57
2022/09/25 08:19:34;;;;;;;6.13;1.80;;;11.30;99.90;;;;;;5034984;28;20115;-57
2022/09/25 08:22:01;;;;;;;12.27;1.80;;;11.40;99.90;;;;;;5037680;28;20415;-59
2022/09/25 08:24:27;;;;;;;7.28;2.17;;;11.40;99.90;;;;;;5034385;28;20080;-58
2022/09/25 08:26:54;;;;;;;9.98;1.95;;;11.50;99.90;;;;;;5033519;28;20117;-55
2022/09/25 08:29:21;;;;;;;11.35;2.10;;;11.60;99.90;;;;;;5034816;28;20124;-57
2022/09/25 08:31:48;;;;;;;10.82;1.80;;;11.60;99.90;;;;;;5035929;28;20447;-56
2022/09/25 08:34:16;;;;;;;6.13;2.05;;;11.60;99.90;;;;;;5033816;28;20095;-57
2022/09/25 08:37:03;;;;;;;6.90;1.60;;;11.70;99.90;;;;;;5043193;28;20045;-56
2022/09/25 08:39:30;;;;;;;10.43;1.73;;;11.80;99.90;;;;;;5035795;28;20084;-58
2022/09/25 08:41:59;;;;;;;6.88;1.80;;;11.80;99.90;;;;;;5031734;28;20555;-58
2022/09/25 08:44:26;;;;;;;9.50;1.90;;;11.90;99.90;;;;;;5054355;28;20124;-57
2022/09/25 08:49:44;;;;;;;9.10;1.90;;;12.00;99.90;;;;;;5050327;28;20041;-58
2022/09/25 08:52:11;;;;;;;9.13;1.73;;;12.10;99.90;;;;;;5040881;28;20384;-59
2022/09/25 08:54:38;;;;;;;9.10;2.03;;;12.10;99.90;;;;;;5035425;28;20112;-57
2022/09/25 08:57:10;;;;;;;6.28;1.60;;;12.20;99.90;;;;;;5040437;28;20037;-58
2022/09/25 08:59:37;;;;;;;7.60;1.70;;;12.20;99.90;;;;;;5034993;28;20042;-57
2022/09/25 09:02:04;;;;;;;7.55;2.00;;;12.30;99.90;;;;;;5035573;28;20064;-58
2022/09/25 09:04:33;;;;;;;10.70;1.95;;;12.30;99.90;;;;;;5045075;28;20136;-57
2022/09/25 09:07:00;;;;;;;11.30;2.20;;;12.40;99.90;;;;;;5039934;28;20067;-53
2022/09/25 09:09:47;;;;;;;8.48;1.60;;;12.40;99.90;;;;;;5033971;28;20049;-57
2022/09/25 09:12:14;;;;;;;9.40;2.47;;;12.50;99.90;;;;;;5052712;28;20391;-56
2022/09/25 09:14:40;;;;;;;7.38;1.63;;;12.50;99.90;;;;;;5050299;28;20073;-56
2022/09/25 09:17:07;;;;;;;6.93;1.88;;;12.60;99.90;;;;;;5054172;28;20561;-55
2022/09/25 09:19:34;;;;;;;8.98;2.03;;;12.70;99.90;;;;;;5054287;28;20079;-55
2022/09/25 09:22:00;;;;;;;8.13;1.80;;;12.70;99.90;;;;;;5051941;28;20072;-57
2022/09/25 09:24:27;;;;;;;8.75;2.15;;;12.80;99.90;;;;;;5035024;28;20050;-52
2022/09/25 09:26:54;;;;;;;7.97;1.75;;;12.80;99.90;;;;;;5034765;28;20401;-53
2022/09/25 09:29:20;;;;;;;7.70;1.60;;;12.80;99.90;;;;;;5034763;28;20077;-60
2022/09/25 09:31:48;;;;;;;7.18;1.52;;;12.90;99.90;;;;;;5032430;28;20465;-56
2022/09/25 09:34:15;;;;;;;8.10;1.70;;;12.90;99.90;;;;;;5034754;28;20068;-56
2022/09/25 09:36:42;;;;;;;8.05;1.50;;;12.90;99.90;;;;;;5032914;28;20095;-58
2022/09/25 09:39:08;;;;;;;5.82;1.30;;;13.00;99.90;;;;;;5034508;28;20048;-58
2022/09/25 09:41:36;;;;;;;5.75;1.42;;;13.00;99.90;;;;;;5043103;28;20100;-60
2022/09/25 09:44:05;;;;;;;5.28;1.13;;;13.10;99.90;;;;;;5035896;28;20144;-57
2022/09/25 09:46:32;;;;;;;6.57;1.40;;;13.10;99.70;;;;;;5049982;28;20048;-55
2022/09/25 09:48:59;;;;;;;7.78;1.80;;;13.20;99.50;;;;;;5034507;28;20045;-57
2022/09/25 09:51:26;;;;;;;7.60;1.83;;;13.20;99.70;;;;;;5031792;28;20048;-57
2022/09/25 09:53:53;;;;;;;5.53;1.40;;;13.30;99.30;;;;;;5034164;28;20087;-59
2022/09/25 09:56:19;;;;;;;7.35;1.20;;;13.30;99.70;;;;;;5030027;28;20037;-58
2022/09/25 09:58:46;;;;;;;6.43;1.40;;;13.40;98.90;;;;;;5042407;28;20076;-55
2022/09/25 10:01:13;;;;;;;7.93;1.40;;;13.50;99.10;;;;;;5044073;28;20091;-59
2022/09/25 10:03:59;;;;;;;6.07;1.50;;;13.50;98.00;;;;;;5038889;28;20497;-58
2022/09/25 10:06:26;;;;;;;9.02;1.70;;;13.60;97.20;;;;;;5028880;28;20088;-55
2022/09/25 10:08:53;;;;;;;5.40;1.40;;;13.60;97.20;;;;;;5037197;28;20467;-57
2022/09/25 10:11:20;;;;;;;6.88;1.75;;;13.70;97.10;;;;;;5050773;28;20072;-57
2022/09/25 10:13:47;;;;;;;4.70;1.48;;;13.70;96.10;;;;;;5039876;28;20417;-60
2022/09/25 10:16:14;;;;;;;5.40;1.27;;;13.70;95.60;;;;;;5038288;28;20037;-60
2022/09/25 10:18:41;;;;;;;8.10;1.98;;;13.80;95.20;;;;;;5046208;28;20037;-59
2022/09/25 10:21:07;;;;;;;4.63;1.25;;;13.80;96.50;;;;;;5035474;28;20045;-58
2022/09/25 10:23:34;;;;;;;8.20;1.45;;;14.00;95.10;;;;;;5032639;28;20072;-53
2022/09/25 10:26:01;;;;;;;6.13;1.60;;;14.00;95.00;;;;;;5044114;28;20037;-56
2022/09/25 10:28:27;;;;;;;6.05;1.45;;;14.00;94.70;;;;;;5041492;28;20084;-59
2022/09/25 10:30:54;;;;;;;6.78;1.17;;;14.10;94.40;;;;;;5031512;28;20125;-58
2022/09/25 10:33:21;;;;;;;6.97;1.20;;;14.20;94.20;;;;;;5025522;28;20060;-57
2022/09/25 10:35:48;;;;;;;8.65;0.93;;;14.20;93.20;;;;;;5030196;28;20106;-59
2022/09/25 10:38:15;;;;;;;4.88;1.38;;;14.20;92.70;;;;;;5036854;28;20072;-59
2022/09/25 10:40:45;;;;;;;4.45;1.23;;;14.20;93.40;;;;;;5048371;28;20037;-55
2022/09/25 10:43:12;;;;;;;5.45;0.95;;;14.20;93.50;;;;;;5033373;28;20112;-57
2022/09/25 10:45:39;;;;;;;6.15;1.05;;;14.30;93.40;;;;;;5036101;28;20485;-56
2022/09/25 10:50:51;;;;;;;3.17;0.98;;;14.50;92.70;;;;;;5045397;28;20064;-57
2022/09/25 10:53:18;;;;;;;4.07;1.05;;;14.50;92.20;;;;;;5043571;28;20045;-56
2022/09/25 10:55:50;;;;;;;4.35;1.02;;;14.40;92.20;;;;;;5033010;28;20041;-58
2022/09/25 10:58:18;;;;;;;3.85;1.10;;;14.40;92.50;;;;;;5040330;28;20116;-60
2022/09/25 11:00:45;;;;;;;5.43;1.25;;;14.50;92.20;;;;;;5049273;28;20120;-60
2022/09/25 11:03:12;;;;;;;3.25;0.98;;;14.60;91.40;;;;;;5037149;28;20125;-58
2022/09/25 11:05:43;;;;;;;5.07;1.20;;;14.60;91.60;;;;;;5039680;28;20132;-57
2022/09/25 11:08:10;;;;;;;5.18;0.90;;;14.70;91.90;;;;;;5041801;28;20037;-56
2022/09/25 11:10:37;;;;;;;5.22;1.00;;;14.70;92.20;;;;;;5046683;28;20059;-56
2022/09/25 11:13:03;;;;;;;4.75;1.33;;;14.70;91.70;;;;;;5037027;28;20076;-60
2022/09/25 11:15:30;;;;;;;4.40;1.10;;;14.70;90.90;;;;;;5037180;28;20065;-56
2022/09/25 11:17:58;;;;;;;6.05;1.05;;;14.80;90.60;;;;;;5046377;28;20038;-58
2022/09/25 11:20:28;;;;;;;4.75;1.00;;;14.80;91.00;;;;;;5044568;28;20128;-57
2022/09/25 11:22:55;;;;;;;5.30;1.00;;;14.80;90.50;;;;;;5036734;28;20485;-59
2022/09/25 11:25:22;;;;;;;5.30;1.20;;;14.70;90.20;;;;;;5042019;28;20051;-58
2022/09/25 11:27:48;;;;;;;6.22;1.02;;;14.60;90.80;;;;;;5034949;28;20437;-57
2022/09/25 11:30:16;;;;;;;4.75;1.00;;;14.70;89.60;;;;;;5042001;28;20040;-56
2022/09/25 11:32:42;;;;;;;6.35;1.00;;;14.70;90.30;;;;;;5046066;28;20069;-59
2022/09/25 11:35:15;;;;;;;4.00;0.90;;;14.80;87.40;;;;;;5036050;28;20512;-55
2022/09/25 11:37:42;;;;;;;3.25;0.88;;;14.90;88.80;;;;;;5039455;28;20511;-55
2022/09/25 11:42:54;;;;;;;3.03;0.90;;;15.10;88.60;;;;;;5041461;28;20385;-57
2022/09/25 11:45:21;;;;;;;3.95;0.88;;;15.10;88.40;;;;;;5042509;28;20120;-59
2022/09/25 11:47:52;;;;;;;3.08;0.80;;;15.20;88.30;;;;;;5049305;28;20108;-56
2022/09/25 11:50:19;;;;;;;3.22;1.17;;;15.20;87.50;;;;;;5039155;28;20038;-60
2022/09/25 11:52:46;;;;;;;4.60;1.00;;;15.30;86.00;;;;;;5036048;28;20440;-57
2022/09/25 11:55:13;;;;;;;4.32;1.10;;;15.40;86.20;;;;;;5035924;28;20038;-56
2022/09/25 11:57:41;;;;;;;7.22;1.30;;;15.40;85.80;;;;;;5055418;28;20503;-58
2022/09/25 12:00:08;;;;;;;3.60;1.10;;;15.40;87.30;;;;;;5055236;28;20041;-55
2022/09/25 12:02:36;;;;;;;4.07;0.95;;;15.50;86.50;;;;;;5031298;28;20053;-58
2022/09/25 12:05:03;;;;;;;3.17;0.80;;;15.50;85.90;;;;;;5037739;28;20412;-58
2022/09/25 12:07:31;;;;;;;3.90;0.77;;;15.50;85.00;;;;;;5038536;28;20041;-60
2022/09/25 12:10:02;;;;;;;3.92;0.80;;;15.60;84.10;;;;;;5040603;28;20045;-58
2022/09/25 12:12:30;;;;;;;3.90;1.10;;;15.60;84.10;;;;;;5038052;28;20037;-58
2022/09/25 12:14:56;;;;;;;4.28;0.98;;;15.60;82.50;;;;;;5035661;28;20037;-57
2022/09/25 12:17:23;;;;;;;4.03;0.90;;;15.70;82.80;;;;;;5035600;28;20468;-59
2022/09/25 12:19:50;;;;;;;3.25;1.02;;;15.70;83.90;;;;;;5028857;28;20121;-54
2022/09/25 12:22:18;;;;;;;4.10;1.02;;;15.80;84.50;;;;;;5029248;28;20100;-58
2022/09/25 12:24:45;;;;;;;3.03;1.00;;;15.80;82.20;;;;;;5028951;28;20072;-59
2022/09/25 12:27:12;;;;;;;4.10;1.13;;;15.70;81.10;;;;;;5054885;28;20103;-53
2022/09/25 12:29:38;;;;;;;3.30;0.90;;;15.70;82.20;;;;;;5049414;28;20132;-57
2022/09/25 12:32:05;;;;;;;3.00;1.17;;;15.70;83.10;;;;;;5054584;28;20037;-59
2022/09/25 12:34:32;;;;;;;2.78;0.90;;;15.70;82.90;;;;;;5054442;28;20073;-58
2022/09/25 12:36:58;;;;;;;3.55;0.93;;;15.70;82.60;;;;;;5037696;28;20149;-56
2022/09/25 12:39:25;;;;;;;4.03;0.90;;;15.80;82.90;;;;;;5035337;28;20044;-59
2022/09/25 12:41:52;;;;;;;4.63;1.23;;;15.80;81.70;;;;;;5035184;28;20080;-61
2022/09/25 12:44:18;;;;;;;3.28;0.70;;;15.80;80.50;;;;;;5035180;28;20073;-54
2022/09/25 12:46:52;;;;;;;2.70;0.80;;;15.70;82.10;;;;;;5035112;28;20072;-56
2022/09/25 12:49:19;;;;;;;2.70;0.85;;;15.80;81.70;;;;;;5034344;28;20042;-56
2022/09/25 12:51:46;;;;;;;4.07;1.27;;;15.80;80.70;;;;;;5035268;28;20477;-56
2022/09/25 12:54:12;;;;;;;2.35;1.00;;;15.80;82.50;;;;;;5034877;28;20038;-55
2022/09/25 12:56:40;;;;;;;4.25;1.10;;;15.80;81.10;;;;;;5034943;28;20113;-56
2022/09/25 12:59:07;;;;;;;3.38;0.98;;;16.00;82.50;;;;;;5034051;28;20061;-58
2022/09/25 13:01:34;;;;;;;5.07;1.15;;;16.10;81.10;;;;;;5034847;28;20103;-57
2022/09/25 13:04:01;;;;;;;4.50;0.98;;;16.20;80.80;;;;;;5034479;28;20053;-55
2022/09/25 13:06:29;;;;;;;3.53;0.85;;;16.20;80.30;;;;;;5034767;28;20527;-59